Terminal Aerodrome Forecast
Issued by NWS Wilmington, NC

Home | Current Version | Previous Version | Text Only | Print | Product List | Glossary On
Versions: 1 2 3 4 5 6 7 8 9 10 11 12 13 14 15 16 17 18 19 20 21
000
FTUS42 KILM 282327
TAFLBT
TAF
KLBT 282327Z 2900/2924 06008KT P6SM FEW050 SCT150
     FM290200 VRB02KT P6SM SCT250
     FM291300 05008KT P6SM FEW040 SCT250
     FM291900 08006KT P6SM FEW050 BKN250=

USA.gov is the U.S. government's official web portal to all federal, state and local government web resources and services.